• Join FlightAware (Why Join?)
  • Login
  • US Flag 
08:57AM EDT


 

Airport Tracker/Info


-or-


 

Live Flight TrackerFlight Track Log ✈ N999TF ✈ 17-Aug-2013 ✈ KUAO - KGEG

Flight Track Log - Related Links

Times and Time Zones

All times are in EDT time to prevent confusion due to time zone crossing. See the N999TF flight status page for this flight to view local times or setup timezone preferences in your user account.

Time Position Orientation Groundspeed Altitude Reporting Facility
EDT Latitude Longitude Course Direction KTS MPH feet Rate Location/Type
01:02PM 45.3764 -122.7325 48° Northeast 135 155 3,900  Level Seattle Center
01:03PM 45.3894 -122.7119 48° Northeast 142 163 4,400 900 Climbing Seattle Center
01:04PM 45.4253 -122.6850 28° Northeast 143 165 5,400 840 Climbing Seattle Center
01:05PM 45.4628 -122.6667 19° North 144 166 6,300 780 Climbing Seattle Center
01:06PM 45.5050 -122.6403 24° Northeast 162 186 7,100 720 Climbing Seattle Center
01:07PM 45.5383 -122.5897 47° Northeast 166 191 7,900 660 Climbing Seattle Center
01:08PM 45.5606 -122.5589 44° Northeast 164 189 8,400 720 Climbing Seattle Center
01:09PM 45.5919 -122.5108 47° Northeast 165 190 9,200 780 Climbing Seattle Center
01:10PM 45.6317 -122.4525 46° Northeast 171 197 10,000 720 Climbing Seattle Center
01:11PM 45.6642 -122.4028 47° Northeast 178 205 10,700 480 Climbing Seattle Center
01:12PM 45.7019 -122.3456 47° Northeast 190 219 11,000 60 Climbing Seattle Center
01:13PM 45.7419 -122.2842 47° Northeast 212 244 10,900  Descending Seattle Center
01:14PM 45.7703 -122.2103 61° Northeast 220 253 11,000  Climbing Seattle Center
01:15PM 45.7944 -122.1319 66° East 217 250 10,900 -60 Descending Seattle Center
01:16PM 45.8181 -122.0589 65° Northeast 214 246 10,900  Level Seattle Center
01:17PM 45.8381 -121.9678 72° East 208 239 11,000  Climbing Seattle Center
01:18PM 45.8486 -121.9017 77° East 204 235 11,000 -60 Level Seattle Center
01:19PM 45.8683 -121.8081 73° East 201 231 10,900 -60 Descending Seattle Center
01:20PM 45.8850 -121.7286 73° East 206 237 10,900  Level Seattle Center
01:21PM 45.9008 -121.6494 74° East 206 237 11,000  Climbing Seattle Center
01:22PM 45.9172 -121.5689 74° East 210 242 10,900 -60 Descending Seattle Center
01:23PM 45.9347 -121.4875 73° East 212 244 10,900  Level Seattle Center
01:24PM 45.9506 -121.4069 74° East 211 243 10,900  Level Seattle Center
01:25PM 45.9686 -121.3264 72° East 211 243 10,900  Level Seattle Center
01:26PM 45.9997 -121.2572 57° Northeast 211 243 11,000 -60 Climbing Seattle Center
01:27PM 46.0364 -121.1858 53° Northeast 217 250 10,800 -120 Descending Seattle Center
01:28PM 46.0706 -121.1181 54° Northeast 215 247 10,800  Level Seattle Center
01:29PM 46.1053 -121.0494 54° Northeast 213 245 10,900 60 Climbing Seattle Center
01:30PM 46.1392 -120.9806 55° Northeast 212 244 11,000  Climbing Seattle Center
01:31PM 46.1742 -120.9111 54° Northeast 212 244 10,900  Descending Seattle Center
01:32PM 46.2194 -120.8244 53° Northeast 216 249 11,000  Climbing Seattle Center
01:33PM 46.2533 -120.7569 54° Northeast 207 238 10,900 -60 Descending Seattle Center
01:34PM 46.2889 -120.6875 53° Northeast 214 246 10,900  Level Seattle Center
01:35PM 46.3239 -120.6164 55° Northeast 217 250 11,000  Climbing Seattle Center
01:36PM 46.3583 -120.5472 54° Northeast 214 246 10,900 -60 Descending Seattle Center
01:37PM 46.3928 -120.4767 55° Northeast 215 247 10,900  Level Seattle Center
01:38PM 46.4275 -120.4067 54° Northeast 214 246 10,900  Level Seattle Center
01:39PM 46.4614 -120.3369 55° Northeast 212 244 10,900  Level Seattle Center
01:40PM 46.4956 -120.2681 54° Northeast 211 243 10,900  Level Seattle Center
01:41PM 46.5294 -120.1978 55° Northeast 212 244 11,000  Climbing Seattle Center
01:42PM 46.5631 -120.1261 56° Northeast 214 246 10,900 -60 Descending Seattle Center
01:43PM 46.6044 -120.0411 55° Northeast 213 245 10,900  Level Seattle Center
01:44PM 46.6397 -119.9717 53° Northeast 215 247 10,900  Level Seattle Center
01:46PM 46.6739 -119.9011 55° Northeast 215 247 10,900  Level Seattle Center
01:47PM 46.7078 -119.8308 55° Northeast 213 245 10,900  Level Seattle Center
01:48PM 46.7428 -119.7608 54° Northeast 214 246 10,900 -60 Level Seattle Center
01:49PM 46.7775 -119.6911 54° Northeast 216 249 10,800  Descending Seattle Center
01:50PM 46.8108 -119.6206 55° Northeast 212 244 10,900  Climbing Seattle Center
01:51PM 46.8450 -119.5481 55° Northeast 215 247 10,800 -60 Descending Seattle Center
01:52PM 46.8797 -119.4769 54° Northeast 217 250 10,800  Level Seattle Center
01:53PM 46.9133 -119.4047 56° Northeast 216 249 10,800  Level Seattle Center
01:54PM 46.9553 -119.3194 54° Northeast 215 247 10,800  Level Seattle Center
01:55PM 46.9889 -119.2481 55° Northeast 215 247 10,900  Climbing Seattle Center
01:56PM 47.0228 -119.1764 55° Northeast 216 249 10,900  Level Seattle Center
01:57PM 47.0583 -119.1022 55° Northeast 211 243 10,900  Level Seattle Center
01:58PM 47.0911 -119.0308 56° Northeast 213 245 10,900  Level Seattle Center
01:59PM 47.1272 -118.9553 55° Northeast 213 245 11,000  Climbing Seattle Center
02:00PM 47.1603 -118.8850 55° Northeast 210 242 10,900 -60 Descending Seattle Center
02:01PM 47.1900 -118.8236 55° Northeast 213 245 10,900  Level Seattle Center
02:02PM 47.2222 -118.7511 57° Northeast 213 245 10,900  Level Seattle Center
02:03PM 47.2617 -118.6669 55° Northeast 210 242 10,900  Level Seattle Center
02:04PM 47.2950 -118.5978 55° Northeast 207 238 10,900  Level Seattle Center
02:05PM 47.3267 -118.5278 56° Northeast 202 232 10,900  Level Seattle Center
02:06PM 47.3586 -118.4581 56° Northeast 206 237 10,900 -60 Level Seattle Center
02:07PM 47.3892 -118.3906 56° Northeast 202 232 10,800 -480 Descending Seattle Center
02:08PM 47.4194 -118.3233 56° Northeast 201 231 10,000 -780 Descending Seattle Center
02:09PM 47.4389 -118.2483 69° East 197 227 9,300 -840 Descending Seattle Center
02:10PM 47.4544 -118.1717 73° East 196 226 8,400 -960 Descending Seattle Center
02:11PM 47.4708 -118.0925 73° East 202 232 7,400 -960 Descending Seattle Center
02:12PM 47.4867 -118.0153 73° East 198 228 6,500 -1,020 Descending Seattle Center
02:13PM 47.5053 -117.9250 73° East 192 221 5,400 -840 Descending Seattle Center
02:14PM 47.5267 -117.8553 66° East 187 215 4,900 -300 Descending Seattle Center
02:15PM 47.5464 -117.7894 66° East 177 204 4,900 -180 Level Seattle Center
02:16PM 47.5658 -117.7253 66° East 172 198 4,600 -300 Descending Seattle Center
02:17PM 47.5956 -117.6678 53° Northeast 171 197 4,300 -660 Descending Seattle Center
02:18PM 47.6011 -117.6017 83° East 161 185 3,300 -660 Descending Seattle Center
02:19PM 47.6267 -117.5597 48° Northeast 135 155 3,000 -300 Descending Seattle Center
02:20PM 47.6486 -117.5272 45° Northeast 114 131 2,700 -300 Descending Seattle Center
02:21PM 47.6356 -117.5125 143° Southeast 96 110 2,400 -240 Descending Seattle Center
02:22PM 47.6242 -117.5325 230° Southwest 79 91 2,300 -120 Descending Seattle Center
02:24PM 47.6167 -117.5333 214° Southwest  Level FlightAware Approximate